sensor_id;sensor_type;location;lat;lon;timestamp;temperature;humidity
65864;SHT30;52639;51.180;20.460;2023-10-31T00:02:15;10.59;94.90
65864;SHT30;52639;51.180;20.460;2023-10-31T00:06:22;10.88;93.84
65864;SHT30;52639;51.180;20.460;2023-10-31T00:10:38;11.10;93.80
65864;SHT30;52639;51.180;20.460;2023-10-31T00:14:41;11.34;93.91
65864;SHT30;52639;51.180;20.460;2023-10-31T00:18:47;11.50;93.55
65864;SHT30;52639;51.180;20.460;2023-10-31T00:22:57;11.66;93.70
65864;SHT30;52639;51.180;20.460;2023-10-31T00:27:00;11.85;93.59
65864;SHT30;52639;51.180;20.460;2023-10-31T00:31:04;12.05;93.24
65864;SHT30;52639;51.180;20.460;2023-10-31T00:35:26;12.14;93.21
65864;SHT30;52639;51.180;20.460;2023-10-31T00:39:31;12.28;93.21
65864;SHT30;52639;51.180;20.460;2023-10-31T00:49:30;12.63;92.44
65864;SHT30;52639;51.180;20.460;2023-10-31T01:08:39;13.19;91.93
65864;SHT30;52639;51.180;20.460;2023-10-31T01:12:42;13.20;91.66
65864;SHT30;52639;51.180;20.460;2023-10-31T01:16:49;13.40;91.74
65864;SHT30;52639;51.180;20.460;2023-10-31T01:20:52;13.43;91.37
65864;SHT30;52639;51.180;20.460;2023-10-31T01:24:57;13.48;91.38
65864;SHT30;52639;51.180;20.460;2023-10-31T01:29:00;13.44;91.36
65864;SHT30;52639;51.180;20.460;2023-10-31T02:04:40;13.43;90.88
65864;SHT30;52639;51.180;20.460;2023-10-31T02:30:20;13.81;89.50
65864;SHT30;52639;51.180;20.460;2023-10-31T04:08:03;15.10;83.21
65864;SHT30;52639;51.180;20.460;2023-10-31T04:12:40;15.17;83.35
65864;SHT30;52639;51.180;20.460;2023-10-31T04:17:08;15.28;83.21
65864;SHT30;52639;51.180;20.460;2023-10-31T07:31:05;15.37;80.22
65864;SHT30;52639;51.180;20.460;2023-10-31T10:39:57;19.54;72.78
65864;SHT30;52639;51.180;20.460;2023-10-31T10:44:04;19.64;72.07
65864;SHT30;52639;51.180;20.460;2023-10-31T10:49:47;19.78;67.89
65864;SHT30;52639;51.180;20.460;2023-10-31T10:54:02;19.50;71.81
65864;SHT30;52639;51.180;20.460;2023-10-31T11:08:45;19.90;70.96
65864;SHT30;52639;51.180;20.460;2023-10-31T11:28:32;19.71;71.13
65864;SHT30;52639;51.180;20.460;2023-10-31T11:33:21;19.95;70.17
65864;SHT30;52639;51.180;20.460;2023-10-31T11:54:12;18.87;73.29
65864;SHT30;52639;51.180;20.460;2023-10-31T11:58:24;18.46;74.03
65864;SHT30;52639;51.180;20.460;2023-10-31T12:02:29;18.39;73.79
65864;SHT30;52639;51.180;20.460;2023-10-31T14:23:36;14.18;81.34
65864;SHT30;52639;51.180;20.460;2023-10-31T14:28:42;14.17;81.31
65864;SHT30;52639;51.180;20.460;2023-10-31T14:37:41;14.04;81.69
65864;SHT30;52639;51.180;20.460;2023-10-31T14:53:16;13.77;82.48
65864;SHT30;52639;51.180;20.460;2023-10-31T15:14:28;13.40;83.32
65864;SHT30;52639;51.180;20.460;2023-10-31T15:19:13;13.28;83.61
65864;SHT30;52639;51.180;20.460;2023-10-31T15:28:57;13.12;84.13
65864;SHT30;52639;51.180;20.460;2023-10-31T15:42:58;13.03;84.61
65864;SHT30;52639;51.180;20.460;2023-10-31T15:47:18;13.07;84.70
65864;SHT30;52639;51.180;20.460;2023-10-31T17:09:03;11.42;88.10
65864;SHT30;52639;51.180;20.460;2023-10-31T17:13:41;11.33;88.38
65864;SHT30;52639;51.180;20.460;2023-10-31T17:17:49;11.23;88.45
65864;SHT30;52639;51.180;20.460;2023-10-31T17:22:01;11.20;88.60
65864;SHT30;52639;51.180;20.460;2023-10-31T17:26:31;11.10;88.70
65864;SHT30;52639;51.180;20.460;2023-10-31T17:31:17;11.09;88.76
65864;SHT30;52639;51.180;20.460;2023-10-31T17:41:08;10.98;88.91
65864;SHT30;52639;51.180;20.460;2023-10-31T17:45:24;10.98;88.85
65864;SHT30;52639;51.180;20.460;2023-10-31T18:21:14;10.65;89.50
65864;SHT30;52639;51.180;20.460;2023-10-31T18:25:55;10.65;89.55
65864;SHT30;52639;51.180;20.460;2023-10-31T18:30:16;10.62;89.65
65864;SHT30;52639;51.180;20.460;2023-10-31T18:34:49;10.56;89.90
65864;SHT30;52639;51.180;20.460;2023-10-31T18:39:09;10.54;89.87
65864;SHT30;52639;51.180;20.460;2023-10-31T18:43:14;10.49;89.96
65864;SHT30;52639;51.180;20.460;2023-10-31T18:47:19;10.46;90.11
65864;SHT30;52639;51.180;20.460;2023-10-31T18:51:31;10.41;90.54
65864;SHT30;52639;51.180;20.460;2023-10-31T18:55:50;10.37;90.28
65864;SHT30;52639;51.180;20.460;2023-10-31T18:59:55;10.33;90.89
65864;SHT30;52639;51.180;20.460;2023-10-31T19:04:02;10.33;90.49
65864;SHT30;52639;51.180;20.460;2023-10-31T19:08:05;10.28;90.36
65864;SHT30;52639;51.180;20.460;2023-10-31T19:12:12;10.28;90.40
65864;SHT30;52639;51.180;20.460;2023-10-31T19:16:18;10.21;90.66
65864;SHT30;52639;51.180;20.460;2023-10-31T19:20:39;10.20;90.50
65864;SHT30;52639;51.180;20.460;2023-10-31T19:24:48;10.20;90.69
65864;SHT30;52639;51.180;20.460;2023-10-31T19:34:17;10.17;90.66
65864;SHT30;52639;51.180;20.460;2023-10-31T20:09:47;9.89;90.98
65864;SHT30;52639;51.180;20.460;2023-10-31T20:30:17;9.79;90.93
65864;SHT30;52639;51.180;20.460;2023-10-31T20:45:22;9.71;91.04
65864;SHT30;52639;51.180;20.460;2023-10-31T20:55:19;9.66;91.32
65864;SHT30;52639;51.180;20.460;2023-10-31T20:59:23;9.63;91.37
65864;SHT30;52639;51.180;20.460;2023-10-31T21:03:29;9.61;91.33
65864;SHT30;52639;51.180;20.460;2023-10-31T21:07:34;9.59;91.47
65864;SHT30;52639;51.180;20.460;2023-10-31T21:11:37;9.56;91.63
65864;SHT30;52639;51.180;20.460;2023-10-31T21:15:50;9.50;91.54
65864;SHT30;52639;51.180;20.460;2023-10-31T21:25:12;9.42;91.71
65864;SHT30;52639;51.180;20.460;2023-10-31T21:29:15;9.42;91.73
65864;SHT30;52639;51.180;20.460;2023-10-31T21:33:19;9.43;91.87
65864;SHT30;52639;51.180;20.460;2023-10-31T21:37:34;9.42;92.01
65864;SHT30;52639;51.180;20.460;2023-10-31T21:41:56;9.44;91.98
65864;SHT30;52639;51.180;20.460;2023-10-31T21:46:00;9.37;91.90
65864;SHT30;52639;51.180;20.460;2023-10-31T21:50:13;9.39;91.86
65864;SHT30;52639;51.180;20.460;2023-10-31T21:54:48;9.40;91.99
65864;SHT30;52639;51.180;20.460;2023-10-31T21:58:53;9.43;91.92
65864;SHT30;52639;51.180;20.460;2023-10-31T22:03:27;9.46;91.87
65864;SHT30;52639;51.180;20.460;2023-10-31T22:07:31;9.43;92.05
65864;SHT30;52639;51.180;20.460;2023-10-31T22:12:33;9.42;92.06
65864;SHT30;52639;51.180;20.460;2023-10-31T22:16:39;9.37;92.39
65864;SHT30;52639;51.180;20.460;2023-10-31T22:20:46;9.27;92.40
65864;SHT30;52639;51.180;20.460;2023-10-31T22:24:56;9.12;92.32
65864;SHT30;52639;51.180;20.460;2023-10-31T22:29:02;8.99;92.28
65864;SHT30;52639;51.180;20.460;2023-10-31T22:33:10;8.91;92.82
65864;SHT30;52639;51.180;20.460;2023-10-31T22:37:14;9.01;92.73
65864;SHT30;52639;51.180;20.460;2023-10-31T22:41:18;8.95;92.54
65864;SHT30;52639;51.180;20.460;2023-10-31T22:45:23;8.86;92.58
65864;SHT30;52639;51.180;20.460;2023-10-31T22:49:31;8.79;92.57
65864;SHT30;52639;51.180;20.460;2023-10-31T22:53:35;8.71;92.58
65864;SHT30;52639;51.180;20.460;2023-10-31T22:57:38;8.84;92.73
65864;SHT30;52639;51.180;20.460;2023-10-31T23:01:58;8.98;92.61
65864;SHT30;52639;51.180;20.460;2023-10-31T23:06:27;9.06;92.41
65864;SHT30;52639;51.180;20.460;2023-10-31T23:10:39;9.09;92.43
65864;SHT30;52639;51.180;20.460;2023-10-31T23:15:15;9.12;92.37
65864;SHT30;52639;51.180;20.460;2023-10-31T23:19:17;9.12;92.66
65864;SHT30;52639;51.180;20.460;2023-10-31T23:23:28;9.14;92.63
65864;SHT30;52639;51.180;20.460;2023-10-31T23:27:37;9.15;92.75
65864;SHT30;52639;51.180;20.460;2023-10-31T23:31:46;9.16;92.76
65864;SHT30;52639;51.180;20.460;2023-10-31T23:35:49;9.08;92.86
65864;SHT30;52639;51.180;20.460;2023-10-31T23:39:54;8.99;92.97
65864;SHT30;52639;51.180;20.460;2023-10-31T23:43:59;8.88;93.14
65864;SHT30;52639;51.180;20.460;2023-10-31T23:48:02;8.91;93.15
65864;SHT30;52639;51.180;20.460;2023-10-31T23:52:07;8.98;93.35
65864;SHT30;52639;51.180;20.460;2023-10-31T23:56:15;9.01;93.07
